sensor_id;sensor_type;location;lat;lon;timestamp;P1;durP1;ratioP1;P2;durP2;ratioP2
23768;SDS011;12064;50.890;5.424;2023-03-01T00:01:07;1.95;;;1.35;;
23768;SDS011;12064;50.890;5.424;2023-03-01T00:10:05;2.75;;;1.20;;
23768;SDS011;12064;50.890;5.424;2023-03-01T00:18:59;1.35;;;1.10;;
23768;SDS011;12064;50.890;5.424;2023-03-01T00:27:49;1.58;;;1.48;;
23768;SDS011;12064;50.890;5.424;2023-03-01T00:36:40;1.70;;;1.30;;
23768;SDS011;12064;50.890;5.424;2023-03-01T00:45:33;1.90;;;1.30;;
23768;SDS011;12064;50.890;5.424;2023-03-01T00:54:24;1.40;;;1.30;;
23768;SDS011;12064;50.890;5.424;2023-03-01T01:03:15;1.37;;;1.23;;
23768;SDS011;12064;50.890;5.424;2023-03-01T01:12:06;2.20;;;1.50;;
23768;SDS011;12064;50.890;5.424;2023-03-01T01:20:57;1.50;;;1.40;;
23768;SDS011;12064;50.890;5.424;2023-03-01T01:29:53;1.50;;;1.40;;
23768;SDS011;12064;50.890;5.424;2023-03-01T01:38:46;1.60;;;1.50;;
23768;SDS011;12064;50.890;5.424;2023-03-01T01:47:40;2.90;;;1.58;;
23768;SDS011;12064;50.890;5.424;2023-03-01T01:56:32;1.80;;;1.45;;
23768;SDS011;12064;50.890;5.424;2023-03-01T02:05:36;1.60;;;1.45;;
23768;SDS011;12064;50.890;5.424;2023-03-01T02:14:41;1.50;;;1.40;;
23768;SDS011;12064;50.890;5.424;2023-03-01T02:23:31;1.60;;;1.50;;
23768;SDS011;12064;50.890;5.424;2023-03-01T02:32:23;1.45;;;1.35;;
23768;SDS011;12064;50.890;5.424;2023-03-01T02:41:17;2.25;;;1.42;;
23768;SDS011;12064;50.890;5.424;2023-03-01T02:50:15;1.40;;;1.30;;
23768;SDS011;12064;50.890;5.424;2023-03-01T02:59:12;2.28;;;1.40;;
23768;SDS011;12064;50.890;5.424;2023-03-01T03:08:05;1.50;;;1.40;;
23768;SDS011;12064;50.890;5.424;2023-03-01T03:17:00;2.33;;;1.40;;
23768;SDS011;12064;50.890;5.424;2023-03-01T03:25:53;1.45;;;1.35;;
23768;SDS011;12064;50.890;5.424;2023-03-01T03:34:44;1.30;;;1.20;;
23768;SDS011;12064;50.890;5.424;2023-03-01T03:43:35;1.40;;;1.30;;
23768;SDS011;12064;50.890;5.424;2023-03-01T03:52:30;1.50;;;1.40;;
23768;SDS011;12064;50.890;5.424;2023-03-01T04:01:21;1.40;;;1.30;;
23768;SDS011;12064;50.890;5.424;2023-03-01T04:10:16;1.40;;;1.30;;
23768;SDS011;12064;50.890;5.424;2023-03-01T04:19:10;1.42;;;1.33;;
23768;SDS011;12064;50.890;5.424;2023-03-01T04:28:01;1.50;;;1.40;;
23768;SDS011;12064;50.890;5.424;2023-03-01T04:36:52;1.40;;;1.30;;
23768;SDS011;12064;50.890;5.424;2023-03-01T04:45:42;1.85;;;1.42;;
23768;SDS011;12064;50.890;5.424;2023-03-01T04:54:35;1.58;;;1.48;;
23768;SDS011;12064;50.890;5.424;2023-03-01T05:03:25;1.50;;;1.40;;
23768;SDS011;12064;50.890;5.424;2023-03-01T05:12:20;1.27;;;1.17;;
23768;SDS011;12064;50.890;5.424;2023-03-01T05:21:14;1.50;;;1.40;;
23768;SDS011;12064;50.890;5.424;2023-03-01T05:30:06;1.75;;;1.25;;
23768;SDS011;12064;50.890;5.424;2023-03-01T05:39:07;1.50;;;1.40;;
23768;SDS011;12064;50.890;5.424;2023-03-01T05:47:58;1.57;;;1.47;;
23768;SDS011;12064;50.890;5.424;2023-03-01T05:56:51;1.40;;;1.27;;
23768;SDS011;12064;50.890;5.424;2023-03-01T06:05:42;1.77;;;1.45;;
23768;SDS011;12064;50.890;5.424;2023-03-01T06:14:36;2.00;;;1.33;;
23768;SDS011;12064;50.890;5.424;2023-03-01T06:23:26;2.10;;;1.53;;
23768;SDS011;12064;50.890;5.424;2023-03-01T06:32:17;1.53;;;1.43;;
23768;SDS011;12064;50.890;5.424;2023-03-01T06:50:42;1.60;;;1.50;;
23768;SDS011;12064;50.890;5.424;2023-03-01T06:59:35;1.57;;;1.47;;
23768;SDS011;12064;50.890;5.424;2023-03-01T07:08:29;2.00;;;1.50;;
23768;SDS011;12064;50.890;5.424;2023-03-01T07:17:19;1.65;;;1.38;;
23768;SDS011;12064;50.890;5.424;2023-03-01T07:26:10;1.63;;;1.53;;
23768;SDS011;12064;50.890;5.424;2023-03-01T07:35:01;1.77;;;1.67;;
23768;SDS011;12064;50.890;5.424;2023-03-01T07:43:52;2.10;;;1.50;;
23768;SDS011;12064;50.890;5.424;2023-03-01T07:52:47;1.90;;;1.67;;
23768;SDS011;12064;50.890;5.424;2023-03-01T08:01:39;1.70;;;1.60;;
23768;SDS011;12064;50.890;5.424;2023-03-01T08:10:30;1.80;;;1.70;;
23768;SDS011;12064;50.890;5.424;2023-03-01T08:19:20;2.13;;;1.70;;
23768;SDS011;12064;50.890;5.424;2023-03-01T08:28:11;1.90;;;1.73;;
23768;SDS011;12064;50.890;5.424;2023-03-01T08:37:01;1.50;;;1.40;;
23768;SDS011;12064;50.890;5.424;2023-03-01T08:45:55;1.52;;;1.42;;
23768;SDS011;12064;50.890;5.424;2023-03-01T08:54:47;1.60;;;1.50;;
23768;SDS011;12064;50.890;5.424;2023-03-01T09:03:39;1.58;;;1.48;;
23768;SDS011;12064;50.890;5.424;2023-03-01T09:12:29;1.73;;;1.63;;
23768;SDS011;12064;50.890;5.424;2023-03-01T09:21:23;1.52;;;1.40;;
23768;SDS011;12064;50.890;5.424;2023-03-01T09:30:20;1.60;;;1.50;;
23768;SDS011;12064;50.890;5.424;2023-03-01T09:39:11;1.50;;;1.40;;
23768;SDS011;12064;50.890;5.424;2023-03-01T09:48:02;1.85;;;1.70;;
23768;SDS011;12064;50.890;5.424;2023-03-01T09:57:31;2.40;;;1.58;;
23768;SDS011;12064;50.890;5.424;2023-03-01T10:06:32;1.95;;;1.77;;
23768;SDS011;12064;50.890;5.424;2023-03-01T10:15:31;2.00;;;1.80;;
23768;SDS011;12064;50.890;5.424;2023-03-01T10:24:34;1.90;;;1.50;;
23768;SDS011;12064;50.890;5.424;2023-03-01T10:33:32;1.60;;;1.50;;
23768;SDS011;12064;50.890;5.424;2023-03-01T10:42:31;1.77;;;1.67;;
23768;SDS011;12064;50.890;5.424;2023-03-01T10:51:23;1.70;;;1.60;;
23768;SDS011;12064;50.890;5.424;2023-03-01T11:00:21;1.70;;;1.60;;
23768;SDS011;12064;50.890;5.424;2023-03-01T11:09:20;1.88;;;1.77;;
23768;SDS011;12064;50.890;5.424;2023-03-01T11:18:19;1.92;;;1.80;;
23768;SDS011;12064;50.890;5.424;2023-03-01T11:27:23;1.92;;;1.73;;
23768;SDS011;12064;50.890;5.424;2023-03-01T11:36:24;1.73;;;1.60;;
23768;SDS011;12064;50.890;5.424;2023-03-01T12:13:49;1.98;;;1.80;;
23768;SDS011;12064;50.890;5.424;2023-03-01T12:22:55;1.90;;;1.80;;
23768;SDS011;12064;50.890;5.424;2023-03-01T12:59:38;1.75;;;1.65;;
23768;SDS011;12064;50.890;5.424;2023-03-01T13:08:49;1.80;;;1.70;;
23768;SDS011;12064;50.890;5.424;2023-03-01T13:17:55;1.83;;;1.73;;
23768;SDS011;12064;50.890;5.424;2023-03-01T13:35:57;2.00;;;1.85;;
23768;SDS011;12064;50.890;5.424;2023-03-01T13:44:48;2.13;;;1.92;;
23768;SDS011;12064;50.890;5.424;2023-03-01T13:53:43;1.90;;;1.80;;
23768;SDS011;12064;50.890;5.424;2023-03-01T14:02:36;1.92;;;1.77;;
23768;SDS011;12064;50.890;5.424;2023-03-01T14:20:41;1.92;;;1.83;;
23768;SDS011;12064;50.890;5.424;2023-03-01T14:29:42;1.98;;;1.88;;
23768;SDS011;12064;50.890;5.424;2023-03-01T14:38:40;1.95;;;1.85;;
23768;SDS011;12064;50.890;5.424;2023-03-01T14:47:36;1.88;;;1.77;;
23768;SDS011;12064;50.890;5.424;2023-03-01T14:56:37;1.88;;;1.77;;
23768;SDS011;12064;50.890;5.424;2023-03-01T15:05:34;1.92;;;1.83;;
23768;SDS011;12064;50.890;5.424;2023-03-01T15:14:40;2.03;;;1.88;;
23768;SDS011;12064;50.890;5.424;2023-03-01T15:23:32;1.70;;;1.60;;
23768;SDS011;12064;50.890;5.424;2023-03-01T15:41:23;1.60;;;1.50;;
23768;SDS011;12064;50.890;5.424;2023-03-01T15:50:22;1.70;;;1.60;;
23768;SDS011;12064;50.890;5.424;2023-03-01T15:59:33;1.77;;;1.67;;
23768;SDS011;12064;50.890;5.424;2023-03-01T16:08:24;3.10;;;1.90;;
23768;SDS011;12064;50.890;5.424;2023-03-01T16:17:14;1.83;;;1.57;;
23768;SDS011;12064;50.890;5.424;2023-03-01T16:26:08;1.77;;;1.67;;
23768;SDS011;12064;50.890;5.424;2023-03-01T16:35:01;1.60;;;1.50;;
23768;SDS011;12064;50.890;5.424;2023-03-01T16:43:51;1.85;;;1.75;;
23768;SDS011;12064;50.890;5.424;2023-03-01T16:52:42;2.03;;;1.83;;
23768;SDS011;12064;50.890;5.424;2023-03-01T17:01:32;1.60;;;1.50;;
23768;SDS011;12064;50.890;5.424;2023-03-01T17:10:29;1.75;;;1.65;;
23768;SDS011;12064;50.890;5.424;2023-03-01T17:19:19;1.60;;;1.50;;
23768;SDS011;12064;50.890;5.424;2023-03-01T17:28:22;1.70;;;1.60;;
23768;SDS011;12064;50.890;5.424;2023-03-01T17:37:14;2.75;;;1.90;;
23768;SDS011;12064;50.890;5.424;2023-03-01T17:46:05;1.80;;;1.70;;
23768;SDS011;12064;50.890;5.424;2023-03-01T17:54:56;2.00;;;1.80;;
23768;SDS011;12064;50.890;5.424;2023-03-01T18:03:46;1.87;;;1.77;;
23768;SDS011;12064;50.890;5.424;2023-03-01T18:12:39;1.65;;;1.55;;
23768;SDS011;12064;50.890;5.424;2023-03-01T18:21:31;1.90;;;1.80;;
23768;SDS011;12064;50.890;5.424;2023-03-01T18:30:22;1.77;;;1.67;;
23768;SDS011;12064;50.890;5.424;2023-03-01T18:39:14;1.95;;;1.85;;
23768;SDS011;12064;50.890;5.424;2023-03-01T18:48:06;1.80;;;1.70;;
23768;SDS011;12064;50.890;5.424;2023-03-01T18:56:57;1.52;;;1.42;;
23768;SDS011;12064;50.890;5.424;2023-03-01T19:05:48;1.85;;;1.70;;
23768;SDS011;12064;50.890;5.424;2023-03-01T19:14:45;1.77;;;1.67;;
23768;SDS011;12064;50.890;5.424;2023-03-01T19:23:40;2.20;;;2.00;;
23768;SDS011;12064;50.890;5.424;2023-03-01T19:32:32;1.80;;;1.70;;
23768;SDS011;12064;50.890;5.424;2023-03-01T19:41:25;1.80;;;1.70;;
23768;SDS011;12064;50.890;5.424;2023-03-01T19:50:16;1.80;;;1.70;;
23768;SDS011;12064;50.890;5.424;2023-03-01T19:59:07;1.80;;;1.70;;
23768;SDS011;12064;50.890;5.424;2023-03-01T20:08:01;1.80;;;1.70;;
23768;SDS011;12064;50.890;5.424;2023-03-01T20:16:57;1.73;;;1.63;;
23768;SDS011;12064;50.890;5.424;2023-03-01T20:25:50;1.70;;;1.60;;
23768;SDS011;12064;50.890;5.424;2023-03-01T20:34:41;1.80;;;1.70;;
23768;SDS011;12064;50.890;5.424;2023-03-01T20:43:35;1.80;;;1.70;;
23768;SDS011;12064;50.890;5.424;2023-03-01T20:52:30;2.10;;;1.92;;
23768;SDS011;12064;50.890;5.424;2023-03-01T21:01:20;1.98;;;1.83;;
23768;SDS011;12064;50.890;5.424;2023-03-01T21:10:13;2.03;;;1.83;;
23768;SDS011;12064;50.890;5.424;2023-03-01T21:19:04;2.38;;;2.00;;
23768;SDS011;12064;50.890;5.424;2023-03-01T21:27:55;2.28;;;2.10;;
23768;SDS011;12064;50.890;5.424;2023-03-01T21:36:48;2.60;;;2.03;;
23768;SDS011;12064;50.890;5.424;2023-03-01T21:45:38;2.30;;;2.10;;
23768;SDS011;12064;50.890;5.424;2023-03-01T21:54:31;2.07;;;1.87;;
23768;SDS011;12064;50.890;5.424;2023-03-01T22:03:22;3.05;;;1.88;;
23768;SDS011;12064;50.890;5.424;2023-03-01T22:12:13;2.03;;;1.83;;
23768;SDS011;12064;50.890;5.424;2023-03-01T22:21:04;1.70;;;1.60;;
23768;SDS011;12064;50.890;5.424;2023-03-01T22:29:58;2.13;;;1.70;;
23768;SDS011;12064;50.890;5.424;2023-03-01T22:38:49;1.92;;;1.80;;
23768;SDS011;12064;50.890;5.424;2023-03-01T22:47:47;1.80;;;1.70;;
23768;SDS011;12064;50.890;5.424;2023-03-01T22:56:38;1.87;;;1.67;;
23768;SDS011;12064;50.890;5.424;2023-03-01T23:05:29;2.08;;;1.88;;
23768;SDS011;12064;50.890;5.424;2023-03-01T23:14:20;1.70;;;1.60;;
23768;SDS011;12064;50.890;5.424;2023-03-01T23:23:13;1.67;;;1.58;;
23768;SDS011;12064;50.890;5.424;2023-03-01T23:32:07;1.75;;;1.60;;
23768;SDS011;12064;50.890;5.424;2023-03-01T23:40:58;1.70;;;1.60;;
23768;SDS011;12064;50.890;5.424;2023-03-01T23:49:50;1.67;;;1.58;;
23768;SDS011;12064;50.890;5.424;2023-03-01T23:58:41;1.77;;;1.67;;
